Time;durP1;ratioP1;P1;durP2;ratioP2;P2;SDS_P1;SDS_P2;PMS_P1;PMS_P2;Temp;Humidity;BMP_temperature;BMP_pressure;BME280_temperature;BME280_humidity;BME280_pressure;Samples;Min_cycle;Max_cycle;Signal;HPM_P1;HPM_P2
2022/04/21 00:00:04;;;;;;;13.40;9.70;;;;;;;5.17;87.13;98744.33;109756;1271;22487;-64
2022/04/21 00:02:33;;;;;;;13.60;9.50;;;;;;;5.14;86.91;98741.07;109745;1271;22423;-64
2022/04/21 00:05:02;;;;;;;11.40;9.30;;;;;;;5.11;87.11;98738.64;109742;1271;22389;-64
2022/04/21 00:07:30;;;;;;;11.80;9.40;;;;;;;5.09;86.85;98740.67;109793;1271;23099;-64
2022/04/21 00:09:58;;;;;;;12.30;8.70;;;;;;;5.07;87.12;98738.22;109764;1269;22415;-64
2022/04/21 00:12:46;;;;;;;13.40;9.30;;;;;;;5.07;87.46;98740.92;109784;1271;22424;-64
2022/04/21 00:15:21;;;;;;;14.10;9.40;;;;;;;5.08;87.27;98741.90;109701;1271;22462;-60
2022/04/21 00:18:09;;;;;;;13.30;9.30;;;;;;;5.08;87.50;98740.07;109746;1270;23122;-61
2022/04/21 00:20:39;;;;;;;11.80;9.30;;;;;;;5.08;87.34;98738.40;109783;1271;22443;-60
2022/04/21 00:25:55;;;;;;;;;;;;;;;5.05;87.53;98737.05;109796;1271;22458;-60
2022/04/21 00:28:23;;;;;;;12.00;8.30;;;;;;;5.06;87.31;98739.39;109682;1272;22443;-60
2022/04/21 00:30:52;;;;;;;10.20;8.60;;;;;;;5.04;87.52;98738.06;109790;1271;22398;-60
2022/04/21 00:33:20;;;;;;;14.00;9.70;;;;;;;5.01;87.66;98743.14;109745;1270;22461;-60
2022/04/21 00:35:50;;;;;;;12.60;9.20;;;;;;;4.99;87.32;98741.70;109779;1271;22330;-60
2022/04/21 00:38:38;;;;;;;10.50;8.70;;;;;;;4.96;87.32;98740.03;109784;1271;22448;-60
2022/04/21 00:41:06;;;;;;;12.20;8.60;;;;;;;4.97;87.69;98738.08;109727;1271;22661;-60
2022/04/21 00:43:36;;;;;;;11.00;9.60;;;;;;;4.96;87.72;98734.89;109756;1271;23353;-60
2022/04/21 00:46:06;;;;;;;13.20;10.00;;;;;;;4.97;87.68;98736.16;109693;1273;22427;-60
2022/04/21 00:48:34;;;;;;;12.00;9.70;;;;;;;4.97;87.62;98738.37;109578;1271;22555;-60
2022/04/21 00:51:02;;;;;;;11.60;9.60;;;;;;;4.96;87.62;98737.88;109643;1271;22497;-60
2022/04/21 00:53:32;;;;;;;12.10;10.10;;;;;;;4.98;87.83;98739.30;109741;1271;22437;-60
2022/04/21 00:56:01;;;;;;;13.00;10.10;;;;;;;4.96;87.87;98734.73;108099;1271;22569;-60
2022/04/21 00:58:30;;;;;;;11.00;9.60;;;;;;;4.95;88.06;98733.67;105354;1271;24271;-62
2022/04/21 01:04:05;;;;;;;13.00;10.00;;;;;;;4.92;87.92;98721.96;109588;1271;23172;-59
2022/04/21 01:06:33;;;;;;;13.10;9.60;;;;;;;4.92;88.12;98721.69;109669;1271;22409;-59
2022/04/21 01:09:21;;;;;;;11.40;9.20;;;;;;;4.91;88.21;98720.31;109739;1271;22430;-60
2022/04/21 01:11:50;;;;;;;12.20;10.00;;;;;;;4.89;88.18;98716.25;109720;1270;22472;-59
2022/04/21 01:14:38;;;;;;;13.00;10.50;;;;;;;4.87;88.12;98713.79;109661;1271;22415;-60
2022/04/21 01:17:12;;;;;;;13.50;10.90;;;;;;;4.88;88.28;98712.17;109735;1272;22472;-59
2022/04/21 01:19:40;;;;;;;12.20;10.20;;;;;;;4.87;88.13;98710.54;109764;1271;22446;-59
2022/04/21 01:22:10;;;;;;;12.90;10.40;;;;;;;4.86;88.26;98710.20;109709;1272;22535;-59
2022/04/21 01:24:39;;;;;;;13.40;11.00;;;;;;;4.86;88.02;98710.09;109773;1271;23168;-59
2022/04/21 01:27:07;;;;;;;12.30;9.60;;;;;;;4.86;88.35;98712.90;109769;1270;22555;-59
2022/04/21 01:29:35;;;;;;;13.80;10.20;;;;;;;4.86;88.27;98715.23;109737;1270;22536;-59
2022/04/21 01:32:04;;;;;;;10.60;9.30;;;;;;;4.85;88.52;98716.98;109771;1270;22450;-60
2022/04/21 01:34:32;;;;;;;12.00;9.90;;;;;;;4.85;87.95;98711.52;109744;1271;22571;-60
2022/04/21 01:42:39;;;;;;;13.20;10.60;;;;;;;4.85;88.44;98702.79;109737;1270;22491;-59
2022/04/21 01:45:27;;;;;;;12.80;10.30;;;;;;;4.85;88.29;98704.84;109760;1271;22416;-60
2022/04/21 01:47:56;;;;;;;13.10;10.70;;;;;;;4.84;88.22;98703.30;109722;1271;22531;-59
2022/04/21 01:50:39;;;;;;;12.10;9.90;;;;;;;4.83;88.35;98702.05;109743;1271;22427;-59
2022/04/21 01:53:07;;;;;;;12.60;10.50;;;;;;;4.83;88.30;98697.77;109784;1270;22389;-59
2022/04/21 01:55:36;;;;;;;13.50;10.10;;;;;;;4.83;88.46;98699.51;109719;1271;23008;-60
2022/04/21 01:58:04;;;;;;;13.50;10.70;;;;;;;4.83;88.31;98692.96;109777;1270;22231;-60
2022/04/21 02:00:32;;;;;;;12.50;10.10;;;;;;;4.83;88.40;98693.34;109624;1273;23368;-59
2022/04/21 02:03:04;;;;;;;13.70;10.50;;;;;;;4.83;88.58;98690.92;109779;1270;22203;-60
2022/04/21 02:05:33;;;;;;;13.80;11.10;;;;;;;4.85;88.35;98691.23;109743;1268;23391;-60
2022/04/21 02:08:03;;;;;;;14.50;10.60;;;;;;;4.84;88.59;98695.05;109757;1271;22225;-60
2022/04/21 02:10:50;;;;;;;12.70;10.40;;;;;;;4.85;88.49;98693.71;109749;1270;22402;-59
2022/04/21 02:13:19;;;;;;;15.40;10.50;;;;;;;4.86;88.63;98691.95;109752;1271;22960;-60
2022/04/21 02:16:06;;;;;;;;;;;;;;;4.87;88.61;98686.68;109756;1271;23181;-60
2022/04/21 02:18:34;;;;;;;;;;;;;;;4.87;88.66;98688.19;109786;1271;22451;-59
2022/04/21 02:21:04;;;;;;;12.30;9.90;;;;;;;4.87;88.54;98685.61;109761;1271;22458;-60
2022/04/21 02:23:33;;;;;;;15.70;11.40;;;;;;;4.88;88.60;98687.08;109666;1274;23137;-60
2022/04/21 02:26:01;;;;;;;13.80;10.80;;;;;;;4.89;88.48;98688.40;109773;1271;22392;-59
2022/04/21 02:28:32;;;;;;;11.10;9.70;;;;;;;4.89;88.48;98690.13;109749;1271;23290;-60
2022/04/21 02:31:00;;;;;;;14.90;11.20;;;;;;;4.89;88.49;98686.20;109758;1270;22308;-59
2022/04/21 02:33:31;;;;;;;15.20;9.90;;;;;;;4.89;88.57;98689.21;109767;1270;23206;-60
2022/04/21 02:36:18;;;;;;;14.10;10.40;;;;;;;4.89;88.31;98684.78;109702;1271;23107;-60
2022/04/21 02:38:46;;;;;;;12.50;10.60;;;;;;;4.89;88.65;98687.70;109749;1270;23215;-60
2022/04/21 02:41:16;;;;;;;13.20;9.70;;;;;;;4.87;88.64;98689.39;109732;1271;22441;-60
2022/04/21 02:43:46;;;;;;;12.40;10.10;;;;;;;4.86;88.63;98688.49;109779;1270;22399;-59
2022/04/21 02:46:16;;;;;;;13.50;10.10;;;;;;;4.85;88.27;98689.55;109766;1270;22321;-60
2022/04/21 02:48:44;;;;;;;13.50;10.30;;;;;;;4.84;88.63;98687.16;109782;1269;22519;-60
2022/04/21 02:51:12;;;;;;;13.90;10.60;;;;;;;4.84;88.35;98685.16;109772;1270;23335;-60
2022/04/21 02:59:45;;;;;;;13.50;11.00;;;;;;;4.81;88.60;98684.77;109668;1271;22435;-60
2022/04/21 03:02:13;;;;;;;13.70;11.80;;;;;;;4.81;88.65;98682.61;109751;1271;22477;-60
2022/04/21 03:04:54;;;;;;;15.90;11.90;;;;;;;4.80;88.42;98685.56;109758;1270;22498;-60
2022/04/21 03:07:22;;;;;;;16.80;12.20;;;;;;;4.80;88.77;98687.17;109780;1270;22414;-60
2022/04/21 03:09:59;;;;;;;15.50;12.30;;;;;;;4.77;88.57;98685.14;109666;1273;23671;-60
2022/04/21 03:12:28;;;;;;;17.60;13.10;;;;;;;4.76;88.78;98685.33;109779;1271;22437;-60
2022/04/21 03:14:57;;;;;;;14.90;12.40;;;;;;;4.75;88.86;98684.84;109770;1271;23453;-60
2022/04/21 03:17:25;;;;;;;16.60;13.00;;;;;;;4.74;89.05;98685.69;109779;1271;22441;-60
2022/04/21 03:19:54;;;;;;;14.80;11.70;;;;;;;4.74;89.26;98685.79;109763;1271;23201;-59
2022/04/21 03:25:32;;;;;;;14.70;12.50;;;;;;;4.74;89.38;98685.90;109757;1271;22451;-60
2022/04/21 03:28:04;;;;;;;16.80;13.10;;;;;;;4.75;89.06;98684.57;109760;1271;22324;-60
2022/04/21 03:30:32;;;;;;;16.40;12.40;;;;;;;4.76;89.00;98687.45;109743;1270;22518;-60
2022/04/21 03:33:00;;;;;;;17.30;13.20;;;;;;;4.76;89.33;98687.07;109716;1271;23173;-59
2022/04/21 03:35:31;;;;;;;15.90;12.90;;;;;;;4.75;89.07;98686.09;109756;1270;22363;-59
2022/04/21 03:37:58;;;;;;;16.60;13.10;;;;;;;4.74;89.11;98686.02;109786;1270;22485;-60
2022/04/21 03:40:27;;;;;;;15.00;12.80;;;;;;;4.74;89.23;98686.00;109757;1271;22625;-59
2022/04/21 03:42:55;;;;;;;16.40;12.60;;;;;;;4.73;89.34;98689.66;109779;1270;22410;-60
2022/04/21 03:45:23;;;;;;;18.80;12.50;;;;;;;4.74;89.35;98692.16;109701;1273;22570;-60
2022/04/21 03:47:51;;;;;;;15.40;12.40;;;;;;;4.76;89.32;98687.98;109727;1272;22407;-59
2022/04/21 03:50:19;;;;;;;13.60;12.10;;;;;;;4.77;89.25;98691.05;109707;1273;22507;-59
2022/04/21 03:52:48;;;;;;;13.60;12.10;;;;;;;4.77;89.32;98687.92;109727;1273;22407;-59
2022/04/21 03:55:35;;;;;;;16.00;11.90;;;;;;;4.77;89.47;98686.85;109685;1273;22431;-60
2022/04/21 03:58:23;;;;;;;16.10;12.50;;;;;;;4.78;89.53;98684.43;109716;1272;22442;-60
2022/04/21 04:00:53;;;;;;;17.20;13.70;;;;;;;4.77;89.61;98685.19;109709;1272;22404;-59
2022/04/21 04:03:20;;;;;;;15.60;13.40;;;;;;;4.76;89.29;98691.21;109729;1273;22489;-60
2022/04/21 04:05:55;;;;;;;15.40;13.30;;;;;;;4.75;89.33;98690.78;109704;1273;22472;-60
2022/04/21 04:11:11;;;;;;;20.50;15.10;;;;;;;4.74;89.65;98691.62;109615;1273;22429;-60
2022/04/21 04:13:40;;;;;;;15.50;13.40;;;;;;;4.73;89.57;98691.11;109639;1272;22434;-59
2022/04/21 04:16:28;;;;;;;16.70;14.70;;;;;;;4.71;89.77;98691.39;109551;1273;22432;-60
2022/04/21 04:18:57;;;;;;;16.10;14.20;;;;;;;4.71;89.84;98691.56;109725;1274;22393;-59
2022/04/21 04:21:26;;;;;;;17.80;14.10;;;;;;;4.68;89.68;98695.60;109703;1273;22201;-60
2022/04/21 04:23:56;;;;;;;17.60;14.30;;;;;;;4.63;89.65;98697.61;109712;1273;22520;-60
2022/04/21 04:26:23;;;;;;;18.20;14.00;;;;;;;4.60;90.01;98697.83;109707;1272;22399;-60
2022/04/21 04:28:52;;;;;;;16.10;13.30;;;;;;;4.58;89.82;98706.15;109712;1273;22403;-59
2022/04/21 04:31:21;;;;;;;16.10;12.70;;;;;;;4.55;89.96;98703.64;109688;1272;22382;-59
2022/04/21 04:33:50;;;;;;;15.70;13.20;;;;;;;4.53;89.74;98707.70;109602;1274;22404;-59
2022/04/21 04:36:19;;;;;;;16.60;13.60;;;;;;;4.51;90.02;98706.48;109735;1274;23502;-59
2022/04/21 04:38:48;;;;;;;22.10;16.90;;;;;;;4.50;90.12;98710.38;109726;1273;22348;-59
2022/04/21 04:44:05;;;;;;;18.10;15.90;;;;;;;4.49;90.09;98709.18;109618;1273;22444;-59
2022/04/21 04:46:35;;;;;;;15.80;13.60;;;;;;;4.50;90.22;98712.83;109700;1274;22451;-60
2022/04/21 04:49:18;;;;;;;19.80;13.40;;;;;;;4.50;90.34;98709.41;109660;1271;23230;-59
2022/04/21 04:51:47;;;;;;;16.10;12.90;;;;;;;4.51;90.20;98707.54;109719;1271;22540;-62
2022/04/21 04:54:15;;;;;;;18.10;13.40;;;;;;;4.51;90.17;98707.70;109720;1273;22515;-60
2022/04/21 04:56:44;;;;;;;15.80;12.40;;;;;;;4.49;90.15;98710.64;109738;1271;23663;-60
2022/04/21 04:59:13;;;;;;;19.20;13.00;;;;;;;4.49;89.99;98709.44;109755;1271;22478;-61
2022/04/21 05:02:01;;;;;;;20.20;13.70;;;;;;;4.49;89.92;98712.63;109737;1271;22443;-61
2022/04/21 05:04:30;;;;;;;15.10;12.70;;;;;;;4.49;90.18;98717.54;109764;1271;22435;-61
2022/04/21 05:06:58;;;;;;;16.70;12.40;;;;;;;4.49;90.19;98716.94;109755;1271;22691;-64
2022/04/21 05:09:46;;;;;;;19.60;13.00;;;;;;;4.49;90.14;98718.52;109742;1270;23258;-64
2022/04/21 05:12:16;;;;;;;14.20;12.10;;;;;;;4.48;89.94;98719.63;109712;1271;22480;-64
2022/04/21 05:15:05;;;;;;;18.80;12.60;;;;;;;4.47;89.91;98726.30;109731;1270;22450;-64
2022/04/21 05:17:34;;;;;;;15.70;13.10;;;;;;;4.44;89.84;98722.91;109740;1270;22393;-64
2022/04/21 05:20:22;;;;;;;20.00;12.20;;;;;;;4.43;89.70;98722.07;109765;1270;23203;-64
2022/04/21 05:22:51;;;;;;;17.90;13.10;;;;;;;4.41;89.78;98720.68;109748;1271;22484;-64
2022/04/21 05:25:20;;;;;;;18.00;13.40;;;;;;;4.41;89.73;98719.90;109643;1271;22419;-64
2022/04/21 05:28:09;;;;;;;;;;;;;;;4.41;89.82;98722.30;109757;1271;22477;-64
2022/04/21 05:33:26;;;;;;;18.50;14.00;;;;;;;4.41;89.37;98721.70;109725;1271;22430;-64
2022/04/21 05:35:55;;;;;;;21.10;14.20;;;;;;;4.40;89.60;98724.48;109749;1270;22454;-64
2022/04/21 05:38:24;;;;;;;18.00;13.80;;;;;;;4.40;89.72;98726.48;109748;1271;22417;-64
2022/04/21 05:40:52;;;;;;;21.10;14.40;;;;;;;4.40;89.69;98728.89;106523;1271;24212;-60
2022/04/21 05:43:21;;;;;;;21.00;15.00;;;;;;;4.39;89.63;98728.65;105341;1271;25159;-59
2022/04/21 05:46:10;;;;;;;20.40;15.30;;;;;;;4.39;89.65;98728.33;105512;1271;22561;-59
2022/04/21 05:48:38;;;;;;;20.50;15.20;;;;;;;4.39;89.95;98729.36;109746;1271;22396;-60
2022/04/21 05:51:09;;;;;;;18.40;15.20;;;;;;;4.39;89.77;98728.23;109744;1269;22482;-60
2022/04/21 05:53:38;;;;;;;18.70;15.20;;;;;;;4.39;89.83;98728.82;109741;1271;22454;-60
2022/04/21 05:56:13;;;;;;;19.10;14.70;;;;;;;4.40;89.98;98730.58;109726;1270;22506;-60
2022/04/21 05:58:42;;;;;;;23.50;18.40;;;;;;;4.41;89.83;98729.20;109611;1272;23188;-60
2022/04/21 06:01:10;;;;;;;18.90;14.80;;;;;;;4.43;89.83;98728.21;109771;1270;23144;-61
2022/04/21 06:03:39;;;;;;;17.70;15.00;;;;;;;4.44;89.94;98725.98;109623;1273;22468;-60
2022/04/21 06:06:08;;;;;;;19.50;14.80;;;;;;;4.47;89.93;98732.88;109701;1271;22530;-61
2022/04/21 06:08:41;;;;;;;22.10;16.90;;;;;;;4.48;89.99;98731.06;109741;1271;22350;-60
2022/04/21 06:11:11;;;;;;;19.10;14.70;;;;;;;4.49;89.48;98733.79;109752;1270;22234;-60
2022/04/21 06:13:54;;;;;;;24.00;17.10;;;;;;;4.49;89.45;98737.12;109741;1271;22388;-60
2022/04/21 06:16:22;;;;;;;24.90;17.70;;;;;;;4.49;89.51;98737.12;106230;1271;22581;-60
2022/04/21 06:19:10;;;;;;;22.20;16.30;;;;;;;4.51;89.68;98737.66;105336;1271;22573;-59
2022/04/21 06:21:47;;;;;;;21.80;15.30;;;;;;;4.54;89.79;98733.99;105316;1271;23998;-59
2022/04/21 06:24:15;;;;;;;20.00;15.40;;;;;;;4.56;89.73;98738.52;105316;1271;23167;-60
2022/04/21 06:26:43;;;;;;;17.90;14.20;;;;;;;4.58;89.61;98736.20;105275;1274;25142;-59
2022/04/21 06:29:11;;;;;;;21.00;13.90;;;;;;;4.61;89.55;98737.02;109660;1271;23274;-60
2022/04/21 06:31:39;;;;;;;22.30;16.80;;;;;;;4.65;89.61;98737.92;109716;1269;22443;-60
2022/04/21 06:34:08;;;;;;;19.90;15.40;;;;;;;4.69;89.69;98742.88;109779;1270;22440;-60
2022/04/21 06:36:36;;;;;;;19.70;15.20;;;;;;;4.72;89.40;98740.89;109771;1270;22359;-60
2022/04/21 06:39:24;;;;;;;23.00;14.40;;;;;;;4.74;89.43;98739.50;109763;1270;22179;-60
2022/04/21 06:41:52;;;;;;;21.20;14.10;;;;;;;4.76;89.24;98744.02;109730;1271;22428;-60
2022/04/21 06:50:26;;;;;;;21.60;14.50;;;;;;;4.85;88.80;98758.15;109740;1272;22427;-60
2022/04/21 06:52:54;;;;;;;22.30;13.90;;;;;;;4.85;89.14;98753.90;109725;1271;22262;-60
2022/04/21 06:55:41;;;;;;;19.60;13.70;;;;;;;4.87;88.73;98754.87;109764;1270;22434;-60
2022/04/21 06:58:11;;;;;;;21.80;13.40;;;;;;;4.91;88.83;98752.88;109716;1273;22419;-60
2022/04/21 07:00:39;;;;;;;22.30;13.60;;;;;;;4.95;88.88;98750.15;109768;1271;22629;-60
2022/04/21 07:03:08;;;;;;;17.20;13.70;;;;;;;4.99;88.74;98751.25;109757;1270;22409;-60
2022/04/21 07:05:36;;;;;;;17.70;13.00;;;;;;;5.05;88.93;98754.16;109630;1271;22555;-60
2022/04/21 07:08:22;;;;;;;19.10;14.00;;;;;;;5.11;88.64;98749.85;109752;1270;22380;-60
2022/04/21 07:10:50;;;;;;;21.00;15.80;;;;;;;5.16;88.48;98753.31;109755;1271;22395;-60
2022/04/21 07:13:37;;;;;;;28.20;17.30;;;;;;;5.22;88.39;98752.17;109739;1270;22391;-60
2022/04/21 07:16:06;;;;;;;32.20;19.30;;;;;;;5.27;88.29;98756.64;108008;1271;22555;-60
2022/04/21 07:18:34;;;;;;;26.20;18.30;;;;;;;5.33;88.10;98756.77;105330;1271;23947;-59
2022/04/21 07:21:04;;;;;;;21.60;15.60;;;;;;;5.38;87.89;98751.48;109695;1271;23160;-60
2022/04/21 07:23:34;;;;;;;20.80;14.70;;;;;;;5.42;87.91;98755.30;109728;1270;23167;-60
2022/04/21 07:26:06;;;;;;;31.80;20.20;;;;;;;5.47;87.84;98749.91;109759;1271;22499;-60
2022/04/21 07:28:35;;;;;;;21.30;16.70;;;;;;;5.52;87.55;98751.98;109682;1271;22383;-60
2022/04/21 07:31:03;;;;;;;19.80;15.50;;;;;;;5.56;87.58;98750.36;109758;1270;23075;-60
2022/04/21 07:33:32;;;;;;;20.60;15.70;;;;;;;5.62;87.60;98753.42;109743;1271;22413;-60
2022/04/21 07:36:00;;;;;;;20.00;13.90;;;;;;;5.68;87.41;98753.35;109791;1270;22252;-60
2022/04/21 07:38:31;;;;;;;28.40;19.20;;;;;;;5.72;87.14;98751.91;109750;1271;22370;-60
2022/04/21 07:40:59;;;;;;;30.40;20.50;;;;;;;5.78;86.92;98752.70;109646;1273;22403;-60
2022/04/21 07:43:47;;;;;;;20.10;15.10;;;;;;;5.80;86.38;98753.81;109750;1271;22441;-60
2022/04/21 07:46:15;;;;;;;23.70;16.20;;;;;;;5.82;86.49;98762.52;109765;1270;23485;-60
2022/04/21 07:51:50;;;;;;;39.80;24.20;;;;;;;5.90;86.26;98772.14;109665;1272;22448;-60
2022/04/21 07:54:23;;;;;;;45.60;28.80;;;;;;;5.93;85.75;98775.66;109774;1271;22405;-60
2022/04/21 07:56:52;;;;;;;32.90;24.20;;;;;;;5.94;86.07;98777.64;109774;1271;22495;-60
2022/04/21 07:59:20;;;;;;;38.50;22.90;;;;;;;5.92;85.57;98777.57;109765;1270;23381;-61
2022/04/21 08:01:51;;;;;;;28.20;20.60;;;;;;;5.89;85.18;98780.10;109794;1271;23481;-61
2022/04/21 08:04:21;;;;;;;60.60;54.00;;;;;;;5.86;85.20;98776.57;109757;1271;22240;-61
2022/04/21 08:07:04;;;;;;;71.60;41.10;;;;;;;5.83;84.73;98780.85;109800;1271;22457;-60
2022/04/21 08:09:32;;;;;;;82.60;47.20;;;;;;;5.81;85.04;98779.46;109632;1271;22460;-60
2022/04/21 08:12:20;;;;;;;43.10;26.80;;;;;;;5.83;85.07;98785.71;109757;1270;22491;-60
2022/04/21 08:14:48;;;;;;;77.50;39.80;;;;;;;5.83;84.83;98788.61;109772;1271;23113;-60
2022/04/21 08:17:17;;;;;;;54.30;34.30;;;;;;;5.83;85.08;98792.73;109707;1271;22453;-61
2022/04/21 08:19:45;;;;;;;38.60;28.60;;;;;;;5.84;84.81;98795.13;109755;1270;22511;-61
2022/04/21 08:22:13;;;;;;;73.30;39.50;;;;;;;5.87;85.05;98804.59;109772;1268;22510;-61
2022/04/21 08:34:00;;;;;;;175.20;56.40;;;;;;;5.91;84.47;98806.87;109696;1273;22407;-61
2022/04/21 08:36:28;;;;;;;282.30;78.00;;;;;;;5.92;84.44;98806.48;109634;1272;22214;-61
2022/04/21 08:38:56;;;;;;;99.40;39.50;;;;;;;5.92;84.22;98809.30;109683;1271;22412;-61
2022/04/21 08:41:26;;;;;;;33.20;21.70;;;;;;;5.93;84.40;98810.60;109779;1271;22394;-61
2022/04/21 08:43:55;;;;;;;239.70;153.40;;;;;;;5.95;84.45;98811.02;109759;1269;22379;-61
2022/04/21 08:46:28;;;;;;;225.60;76.20;;;;;;;5.97;84.25;98811.22;109771;1271;23169;-61
2022/04/21 08:48:57;;;;;;;41.40;25.10;;;;;;;6.01;84.21;98813.73;109552;1273;22509;-61
2022/04/21 08:51:45;;;;;;;45.70;24.20;;;;;;;6.10;84.31;98809.04;109640;1270;22490;-61
2022/04/21 08:54:13;;;;;;;49.30;24.30;;;;;;;6.19;84.30;98811.09;109738;1270;22374;-61
2022/04/21 08:57:00;;;;;;;52.10;27.20;;;;;;;6.27;83.72;98812.39;109707;1273;22428;-61
2022/04/21 08:59:28;;;;;;;93.80;41.00;;;;;;;6.33;83.20;98810.11;109763;1271;22408;-61
2022/04/21 09:01:59;;;;;;;27.20;20.60;;;;;;;6.40;83.20;98818.27;109789;1269;22424;-61
2022/04/21 09:06:30;;;;;;;200.60;66.70;;;;;;;6.51;82.68;98817.95;102446;1304;545337;-60
2022/04/21 09:09:21;;;;;;;151.40;58.10;;;;;;;6.52;82.35;98818.71;104664;1284;25349;-60
2022/04/21 09:12:18;;;;;;;52.50;25.90;;;;;;;6.54;81.97;98822.27;104763;1284;22588;-60
2022/04/21 09:14:48;;;;;;;52.00;29.40;;;;;;;6.58;81.85;98822.81;104208;1284;23964;-61
2022/04/21 09:17:16;;;;;;;38.90;21.90;;;;;;;6.59;81.46;98822.41;108854;1282;23509;-59
2022/04/21 09:20:03;;;;;;;22.60;15.60;;;;;;;6.66;82.03;98825.80;108819;1280;221894;-60
2022/04/21 09:22:32;;;;;;;50.80;41.20;;;;;;;6.72;82.27;98831.08;108962;1282;22427;-60
2022/04/21 09:25:02;;;;;;;39.30;23.50;;;;;;;6.78;81.45;98829.69;109119;1279;22403;-60
2022/04/21 09:27:38;;;;;;;41.90;24.50;;;;;;;6.78;81.51;98832.35;104976;1281;22561;-64
2022/04/21 09:30:10;;;;;;;33.00;20.10;;;;;;;6.79;81.10;98831.42;104845;1281;24411;-64
2022/04/21 09:32:53;;;;;;;38.40;21.30;;;;;;;6.79;80.98;98830.89;109148;1279;23288;-64
2022/04/21 09:35:28;;;;;;;25.70;17.50;;;;;;;6.78;80.58;98833.70;109072;1280;22250;-64
2022/04/21 09:37:57;;;;;;;39.30;26.50;;;;;;;6.70;79.82;98832.56;109106;1280;22442;-64
2022/04/21 09:40:27;;;;;;;24.20;19.10;;;;;;;6.63;79.85;98835.66;109094;1280;22378;-64
2022/04/21 09:43:00;;;;;;;132.70;42.00;;;;;;;6.56;79.81;98836.59;108901;1281;23478;-64
2022/04/21 09:48:21;;;;;;;41.20;22.10;;;;;;;6.54;80.44;98839.15;109106;1280;23111;-64
2022/04/21 09:50:51;;;;;;;22.10;14.90;;;;;;;6.55;80.36;98835.88;109562;1274;22225;-64
2022/04/21 09:53:23;;;;;;;22.10;13.90;;;;;;;6.57;80.97;98840.50;109735;1273;22619;-64
2022/04/21 09:56:08;;;;;;;19.30;14.30;;;;;;;6.61;80.97;98841.10;109679;1273;22459;-60
2022/04/21 09:58:38;;;;;;;18.90;13.50;;;;;;;6.63;80.91;98841.35;109672;1272;22409;-60
2022/04/21 10:01:06;;;;;;;17.80;13.20;;;;;;;6.63;81.18;98849.26;109691;1273;22416;-60
2022/04/21 10:03:35;;;;;;;17.70;12.20;;;;;;;6.65;81.02;98853.92;109576;1273;22495;-60
2022/04/21 10:06:03;;;;;;;29.10;17.00;;;;;;;6.65;81.31;98852.84;109702;1273;23116;-60
2022/04/21 10:08:31;;;;;;;53.90;23.50;;;;;;;6.65;81.32;98852.09;109513;1273;22393;-60
2022/04/21 10:11:25;;;;;;;;;;;;;;;6.64;80.72;98855.70;109602;1274;23104;-60
2022/04/21 10:13:56;;;;;;;21.70;12.70;;;;;;;6.60;80.83;98855.48;109660;1273;23277;-61
2022/04/21 10:16:45;;;;;;;22.40;13.10;;;;;;;6.56;80.71;98861.33;109654;1273;22671;-60
2022/04/21 10:19:13;;;;;;;23.30;15.00;;;;;;;6.56;80.35;98861.76;109655;1273;23307;-60
2022/04/21 10:21:52;;;;;;;70.90;30.80;;;;;;;6.54;80.74;98863.45;109664;1273;22428;-60
2022/04/21 10:24:34;;;;;;;36.90;18.40;;;;;;;6.50;80.27;98867.02;109589;1273;22398;-61
2022/04/21 10:27:04;;;;;;;47.20;22.10;;;;;;;6.39;80.12;98870.92;109446;1274;23205;-60
2022/04/21 10:29:52;;;;;;;35.00;18.70;;;;;;;6.32;80.76;98877.70;109410;1274;22466;-60
2022/04/21 10:32:20;;;;;;;27.30;13.40;;;;;;;6.32;80.85;98880.06;109522;1273;22451;-60
2022/04/21 10:34:49;;;;;;;29.10;22.00;;;;;;;6.31;80.97;98883.20;109595;1273;22440;-60
2022/04/21 10:37:17;;;;;;;34.60;25.60;;;;;;;6.31;81.06;98882.00;109509;1274;22407;-60
2022/04/21 10:40:03;;;;;;;60.50;27.60;;;;;;;6.29;80.97;98888.08;109628;1274;23149;-60
2022/04/21 10:42:51;;;;;;;57.20;25.20;;;;;;;6.26;81.27;98887.69;109684;1273;22406;-60
2022/04/21 10:45:25;;;;;;;37.20;19.70;;;;;;;6.23;81.24;98893.48;109658;1273;23075;-60
2022/04/21 10:48:06;;;;;;;25.80;16.70;;;;;;;6.24;81.50;98895.22;109688;1273;22405;-60
2022/04/21 10:50:54;;;;;;;18.40;12.20;;;;;;;6.27;81.73;98897.29;109569;1274;22443;-60
2022/04/21 10:59:07;;;;;;;62.00;26.50;;;;;;;6.34;81.29;98899.25;109591;1274;22529;-60
2022/04/21 11:01:35;;;;;;;30.90;16.00;;;;;;;6.31;81.05;98899.42;109634;1272;22381;-60
2022/04/21 11:04:25;;;;;;;15.50;10.30;;;;;;;6.28;81.07;98900.17;109676;1273;22530;-60
2022/04/21 11:07:08;;;;;;;17.70;11.20;;;;;;;6.27;80.88;98904.77;109606;1274;22419;-60
2022/04/21 11:09:37;;;;;;;31.20;16.10;;;;;;;6.27;81.07;98905.94;109694;1273;22535;-59
2022/04/21 11:12:46;;;;;;;23.10;15.40;;;;;;;6.26;81.12;98902.79;109509;1274;22458;-59
2022/04/21 11:15:58;;;;;;;13.60;11.20;;;;;;;6.25;81.27;98906.66;109658;1273;22511;-59
2022/04/21 11:18:30;;;;;;;18.50;12.70;;;;;;;6.26;81.46;98910.09;109494;1276;23187;-60
2022/04/21 11:21:22;;;;;;;18.80;12.70;;;;;;;6.27;81.54;98910.38;109651;1273;23140;-60
2022/04/21 11:23:50;;;;;;;25.90;16.20;;;;;;;6.30;81.48;98912.40;109618;1273;22521;-60
2022/04/21 11:26:31;;;;;;;30.20;16.70;;;;;;;6.29;81.38;98914.33;109590;1273;22505;-60
2022/04/21 11:29:01;;;;;;;45.60;23.30;;;;;;;6.30;81.69;98915.69;109700;1273;23341;-60
2022/04/21 11:31:29;;;;;;;35.40;30.30;;;;;;;6.32;81.57;98918.42;109675;1273;23100;-60
2022/04/21 11:34:04;;;;;;;87.10;53.60;;;;;;;6.34;81.48;98918.25;109612;1274;22417;-60
2022/04/21 11:36:52;;;;;;;92.70;34.20;;;;;;;6.34;81.41;98916.02;106574;1274;24285;-60
2022/04/21 11:39:20;;;;;;;60.00;24.30;;;;;;;6.33;81.11;98915.79;109573;1274;22385;-60
2022/04/21 11:41:49;;;;;;;43.70;21.10;;;;;;;6.32;81.81;98914.11;109633;1274;23208;-60
2022/04/21 11:44:23;;;;;;;27.20;14.50;;;;;;;6.34;81.61;98916.52;109594;1274;22479;-60
2022/04/21 11:46:51;;;;;;;20.10;13.50;;;;;;;6.36;81.64;98912.48;109809;1269;23249;-61
2022/04/21 11:49:21;;;;;;;29.00;19.10;;;;;;;6.42;81.76;98915.65;109767;1270;22523;-60
2022/04/21 11:51:52;;;;;;;44.80;29.90;;;;;;;6.47;81.51;98920.58;109800;1270;23163;-60
2022/04/21 11:54:20;;;;;;;102.80;33.10;;;;;;;6.51;81.34;98915.20;109831;1270;23262;-60
2022/04/21 11:56:51;;;;;;;42.00;21.10;;;;;;;6.52;80.76;98916.14;109818;1269;22432;-60
2022/04/21 11:59:39;;;;;;;22.10;13.80;;;;;;;6.51;80.58;98919.65;109846;1269;22886;-61
2022/04/21 12:07:43;;;;;;;21.80;14.40;;;;;;;6.47;80.26;98925.77;109834;1269;22383;-64
2022/04/21 12:10:30;;;;;;;14.70;10.10;;;;;;;6.44;80.61;98923.88;109851;1269;22431;-64
2022/04/21 12:12:58;;;;;;;18.50;14.80;;;;;;;6.46;80.33;98926.23;109734;1271;22564;-64
2022/04/21 12:15:30;;;;;;;24.40;17.60;;;;;;;6.50;80.88;98928.55;109787;1270;22543;-64
2022/04/21 12:18:18;;;;;;;34.30;16.80;;;;;;;6.54;80.10;98933.77;109802;1270;22428;-64
2022/04/21 12:20:55;;;;;;;78.00;32.50;;;;;;;6.55;80.07;98929.13;109747;1270;23149;-64
2022/04/21 12:23:24;;;;;;;31.70;18.50;;;;;;;6.54;79.96;98933.38;109816;1270;22496;-64
2022/04/21 12:25:52;;;;;;;31.70;17.80;;;;;;;6.52;79.75;98932.91;109833;1270;22533;-64
2022/04/21 12:28:20;;;;;;;32.20;18.90;;;;;;;6.54;80.08;98933.00;109812;1270;22442;-65
2022/04/21 12:30:49;;;;;;;44.00;20.70;;;;;;;6.56;79.95;98933.95;109763;1270;22484;-64
2022/04/21 12:33:17;;;;;;;17.10;13.50;;;;;;;6.58;80.21;98935.52;109833;1270;22463;-64
2022/04/21 12:35:46;;;;;;;18.40;14.10;;;;;;;6.61;79.70;98937.25;108722;1270;22993;-60
2022/04/21 12:41:04;;;;;;;23.50;14.70;;;;;;;6.65;78.92;98941.23;109753;1270;22392;-60
2022/04/21 12:43:52;;;;;;;10.70;8.30;;;;;;;6.66;79.13;98945.10;109822;1269;22498;-60
2022/04/21 12:46:20;;;;;;;20.00;12.10;;;;;;;6.66;78.96;98947.71;109696;1270;22474;-60
2022/04/21 12:48:51;;;;;;;14.30;9.60;;;;;;;6.66;78.89;98951.13;109782;1270;23054;-60
2022/04/21 12:51:19;;;;;;;11.20;8.60;;;;;;;6.68;79.11;98952.08;109770;1270;23217;-60